createdAt,value
2023-04-24T00:00:40.219Z,99216.53
2023-04-24T00:03:26.744Z,99190.53
2023-04-24T00:06:12.186Z,99207.84
2023-04-24T00:08:57.371Z,99213.16
2023-04-24T00:11:42.308Z,99219.19
2023-04-24T00:14:27.318Z,99227.78
2023-04-24T00:17:12.241Z,99239.88
2023-04-24T00:19:58.141Z,99243.38
2023-04-24T00:22:43.430Z,99261.47
2023-04-24T00:25:28.316Z,99267.50
2023-04-24T00:28:13.178Z,99230.28
2023-04-24T00:30:58.264Z,99201.72
2023-04-24T00:33:43.625Z,99183.66
2023-04-24T00:36:29.400Z,99193.22
2023-04-24T00:39:14.482Z,99183.66
2023-04-24T00:41:59.621Z,99199.22
2023-04-24T00:44:45.351Z,99206.19
2023-04-24T00:47:30.764Z,99224.31
2023-04-24T00:50:16.978Z,99245.03
2023-04-24T00:53:02.104Z,99228.59
2023-04-24T00:55:47.481Z,99237.25
2023-04-24T00:58:32.949Z,99240.72
2023-04-24T01:01:20.641Z,99239.91
2023-04-24T01:04:06.122Z,99245.06
2023-04-24T01:06:53.389Z,99245.94
2023-04-24T01:09:41.188Z,99258.88
2023-04-24T01:12:26.676Z,99253.72
2023-04-24T01:15:12.140Z,99261.50
2023-04-24T01:17:56.998Z,99265.84
2023-04-24T01:20:43.910Z,99268.44
2023-04-24T01:23:29.030Z,99277.06
2023-04-24T01:26:16.455Z,99266.75
2023-04-24T01:29:01.781Z,99266.75
2023-04-24T01:31:47.226Z,99276.25
2023-04-24T01:34:32.384Z,99282.34
2023-04-24T01:37:17.483Z,99297.00
2023-04-24T01:40:02.441Z,99290.97
2023-04-24T01:42:48.381Z,99291.00
2023-04-24T01:45:33.452Z,99292.72
2023-04-24T01:48:18.996Z,99294.50
2023-04-24T01:51:04.325Z,99297.94
2023-04-24T01:53:49.666Z,99288.50
2023-04-24T01:56:35.312Z,99291.94
2023-04-24T01:59:21.845Z,99284.16
2023-04-24T02:02:07.009Z,99269.56
2023-04-24T02:04:51.998Z,99284.22
2023-04-24T02:07:37.524Z,99286.81
2023-04-24T02:10:22.790Z,99300.59
2023-04-24T02:13:07.531Z,99302.31
2023-04-24T02:15:53.030Z,99291.97
2023-04-24T02:18:38.385Z,99297.16
2023-04-24T02:21:23.853Z,99298.00
2023-04-24T02:24:09.278Z,99293.69
2023-04-24T02:26:54.008Z,99300.56
2023-04-24T02:29:38.985Z,99291.13
2023-04-24T02:32:23.971Z,99295.44
2023-04-24T02:35:09.558Z,99294.59
2023-04-24T02:37:54.859Z,99298.88
2023-04-24T02:40:39.824Z,99303.19
2023-04-24T02:43:25.294Z,99305.75
2023-04-24T02:46:10.685Z,99320.38
2023-04-24T02:48:56.136Z,99325.53
2023-04-24T02:51:40.962Z,99326.41
2023-04-24T02:54:26.133Z,99330.72
2023-04-24T02:57:11.468Z,99333.28
2023-04-24T02:59:56.843Z,99330.72
2023-04-24T03:02:41.785Z,99328.13
2023-04-24T03:05:27.116Z,99336.72
2023-04-24T03:08:12.478Z,99340.19
2023-04-24T03:10:57.658Z,99341.03
2023-04-24T03:13:43.143Z,99340.19
2023-04-24T03:16:28.107Z,99341.03
2023-04-24T03:19:13.443Z,99336.72
2023-04-24T03:21:58.366Z,99332.44
2023-04-24T03:24:43.525Z,99335.88
2023-04-24T03:27:28.880Z,99332.44
2023-04-24T03:30:14.300Z,99333.31
2023-04-24T03:32:59.558Z,99322.13
2023-04-24T03:35:44.962Z,99316.09
2023-04-24T03:38:29.905Z,99306.59
2023-04-24T03:41:14.799Z,99292.84
2023-04-24T03:44:00.184Z,99300.59
2023-04-24T03:46:45.580Z,99299.72
2023-04-24T03:49:30.755Z,99292.88
2023-04-24T03:52:16.101Z,99298.03
2023-04-24T03:55:01.687Z,99288.56
2023-04-24T03:57:46.653Z,99275.63
2023-04-24T04:00:31.499Z,99267.91
2023-04-24T04:03:17.033Z,99283.38
2023-04-24T04:06:02.905Z,99286.84
2023-04-24T04:08:48.021Z,99275.63
2023-04-24T04:11:32.865Z,99275.63
2023-04-24T04:14:18.443Z,99279.06
2023-04-24T04:17:03.889Z,99286.81
2023-04-24T04:19:49.387Z,99294.56
2023-04-24T04:22:34.741Z,99273.03
2023-04-24T04:25:20.226Z,99261.00
2023-04-24T04:28:05.678Z,99265.28
2023-04-24T04:30:51.404Z,99268.75
2023-04-24T04:33:36.360Z,99275.63
2023-04-24T04:36:21.491Z,99300.63
2023-04-24T04:39:07.276Z,99318.66
2023-04-24T04:41:52.423Z,99325.50
2023-04-24T04:44:37.934Z,99337.53
2023-04-24T04:47:23.569Z,99353.84
2023-04-24T04:50:09.090Z,99353.00
2023-04-24T04:52:54.425Z,99355.56
2023-04-24T04:55:40.102Z,99342.69
2023-04-24T04:58:25.211Z,99353.84
2023-04-24T05:01:10.783Z,99346.97
2023-04-24T05:03:56.278Z,99345.25
2023-04-24T05:06:41.879Z,99353.03
2023-04-24T05:09:27.165Z,99353.03
2023-04-24T05:12:12.686Z,99346.13
2023-04-24T05:14:58.373Z,99354.75
2023-04-24T05:17:45.706Z,99363.31
2023-04-24T05:20:31.008Z,99344.44
2023-04-24T05:23:16.681Z,99345.28
2023-04-24T05:26:02.058Z,99344.44
2023-04-24T05:28:48.146Z,99357.34
2023-04-24T05:31:33.404Z,99359.06
2023-04-24T05:34:18.434Z,99365.94
2023-04-24T05:37:03.698Z,99373.69
2023-04-24T05:39:49.151Z,99363.38
2023-04-24T05:42:34.696Z,99359.91
2023-04-24T05:45:19.962Z,99369.38
2023-04-24T05:48:05.344Z,99372.00
2023-04-24T05:50:50.732Z,99368.53
2023-04-24T05:53:35.738Z,99368.53
2023-04-24T05:56:21.448Z,99371.13
2023-04-24T05:59:06.824Z,99359.94
2023-04-24T06:01:52.364Z,99364.22
2023-04-24T06:04:37.812Z,99369.41
2023-04-24T06:07:23.718Z,99365.09
2023-04-24T06:10:09.873Z,99355.66
2023-04-24T06:12:54.944Z,99351.34
2023-04-24T06:15:39.996Z,99359.06
2023-04-24T06:18:25.198Z,99364.22
2023-04-24T06:21:10.354Z,99364.25
2023-04-24T06:23:55.696Z,99360.81
2023-04-24T06:26:40.646Z,99365.09
2023-04-24T06:29:26.025Z,99373.69
2023-04-24T06:32:10.853Z,99390.88
2023-04-24T06:34:56.782Z,99374.56
2023-04-24T06:37:43.212Z,99378.84
2023-04-24T06:40:28.303Z,99377.97
2023-04-24T06:43:13.617Z,99365.97
2023-04-24T06:46:00.927Z,99373.72
2023-04-24T06:48:45.800Z,99378.03
2023-04-24T06:51:31.030Z,99372.84
2023-04-24T06:54:15.877Z,99362.53
2023-04-24T06:57:01.381Z,99359.09
2023-04-24T06:59:46.710Z,99351.34
2023-04-24T07:02:32.200Z,99333.31
2023-04-24T07:05:17.476Z,99341.91
2023-04-24T07:08:02.591Z,99345.34
2023-04-24T07:10:47.898Z,99322.09
2023-04-24T07:13:33.297Z,99322.09
2023-04-24T07:16:18.778Z,99338.44
2023-04-24T07:19:04.131Z,99336.72
2023-04-24T07:21:49.495Z,99346.19
2023-04-24T07:24:34.837Z,99341.03
2023-04-24T07:27:19.964Z,99336.72
2023-04-24T07:30:05.558Z,99331.56
2023-04-24T07:32:50.774Z,99334.13
2023-04-24T07:35:36.226Z,99341.91
2023-04-24T07:38:21.773Z,99355.66
2023-04-24T07:41:06.886Z,99335.88
2023-04-24T07:43:52.395Z,99347.06
2023-04-24T07:46:37.794Z,99353.09
2023-04-24T07:49:23.150Z,99337.59
2023-04-24T07:52:08.307Z,99377.16
2023-04-24T07:54:55.753Z,99333.28
2023-04-24T07:57:40.632Z,99347.06
2023-04-24T08:00:25.758Z,99339.31
2023-04-24T08:03:10.957Z,99362.56
2023-04-24T08:05:56.209Z,99372.00
2023-04-24T08:08:41.671Z,99377.16
2023-04-24T08:11:27.492Z,99397.81
2023-04-24T08:14:12.856Z,99405.53
2023-04-24T08:16:58.704Z,99405.56
2023-04-24T08:19:44.717Z,99409.88
2023-04-24T08:22:30.148Z,99396.97
2023-04-24T08:25:15.174Z,99378.91
2023-04-24T08:28:00.254Z,99377.16
2023-04-24T08:30:45.566Z,99377.19
2023-04-24T08:33:30.936Z,99372.00
2023-04-24T08:36:15.910Z,99377.19
2023-04-24T08:39:00.740Z,99390.06
2023-04-24T08:41:49.988Z,99402.09
2023-04-24T08:44:38.331Z,99394.34
2023-04-24T08:47:23.955Z,99397.81
2023-04-24T08:50:12.854Z,99396.94
2023-04-24T08:53:05.094Z,99400.38
2023-04-24T08:55:54.737Z,99387.47
2023-04-24T08:58:43.485Z,99398.69
2023-04-24T09:01:28.976Z,99385.78
2023-04-24T09:04:15.927Z,99384.03
2023-04-24T09:07:02.207Z,99390.06
2023-04-24T09:09:48.981Z,99397.81
2023-04-24T09:12:35.478Z,99385.75
2023-04-24T09:15:20.953Z,99390.06
2023-04-24T09:18:06.361Z,99392.63
2023-04-24T09:21:07.667Z,99391.81
2023-04-24T09:24:04.876Z,99382.34
2023-04-24T09:26:57.813Z,99379.75
2023-04-24T09:33:16.931Z,99389.25
2023-04-24T09:36:02.418Z,99387.50
2023-04-24T09:38:48.034Z,99391.78
2023-04-24T09:41:33.969Z,99402.97
2023-04-24T09:44:20.869Z,99431.28
2023-04-24T09:47:10.514Z,99439.84
2023-04-24T09:49:59.049Z,99444.13
2023-04-24T09:52:46.256Z,99463.91
2023-04-24T09:55:32.028Z,99473.28
2023-04-24T09:58:17.315Z,99481.81
2023-04-24T10:01:03.106Z,99509.38
2023-04-24T10:03:48.574Z,99517.84
2023-04-24T10:06:35.432Z,99528.88
2023-04-24T10:09:22.990Z,99531.44
2023-04-24T10:12:08.270Z,99565.16
2023-04-24T10:14:54.060Z,99568.59
2023-04-24T10:17:40.170Z,99574.69
2023-04-24T10:20:29.745Z,99567.75
2023-04-24T10:23:15.154Z,99564.22
2023-04-24T10:26:01.440Z,99566.84
2023-04-24T10:28:47.772Z,99574.53
2023-04-24T10:31:33.333Z,99576.22
2023-04-24T10:34:21.126Z,99581.38
2023-04-24T10:37:06.447Z,99568.34
2023-04-24T10:39:51.812Z,99588.13
2023-04-24T10:42:41.401Z,99604.50
2023-04-24T10:45:26.983Z,99605.16
2023-04-24T10:48:12.001Z,99607.53
2023-04-24T10:50:57.401Z,99609.19
2023-04-24T10:53:43.033Z,99622.13
2023-04-24T10:56:28.251Z,99635.69
2023-04-24T10:59:25.293Z,99642.59
2023-04-24T11:02:11.330Z,99650.25
2023-04-24T11:04:56.894Z,99654.72
2023-04-24T11:08:14.630Z,99653.00
2023-04-24T11:11:01.357Z,99667.38
2023-04-24T11:13:55.548Z,99671.63
2023-04-24T11:16:55.004Z,99676.91
2023-04-24T11:19:40.410Z,99664.97
2023-04-24T11:22:26.528Z,99675.28
2023-04-24T11:25:11.522Z,99677.88
2023-04-24T11:28:06.778Z,99678.63
2023-04-24T11:30:51.820Z,99688.19
2023-04-24T11:33:37.353Z,99693.34
2023-04-24T11:36:22.947Z,99696.75
2023-04-24T11:39:08.190Z,99703.66
2023-04-24T11:41:53.077Z,99712.19
2023-04-24T11:44:38.803Z,99705.28
2023-04-24T11:47:32.120Z,99707.81
2023-04-24T11:50:19.585Z,99714.69
2023-04-24T11:53:05.053Z,99726.72
2023-04-24T11:55:50.120Z,99750.66
2023-04-24T11:58:39.639Z,99758.53
2023-04-24T12:01:24.932Z,99766.13
2023-04-24T12:04:10.585Z,99761.84
2023-04-24T12:07:05.370Z,99775.63
2023-04-24T12:09:59.304Z,99770.47
2023-04-24T12:12:46.316Z,99772.16
2023-04-24T12:15:32.323Z,99773.91
2023-04-24T12:18:17.635Z,99783.50
2023-04-24T12:21:22.698Z,99791.81
2023-04-24T12:24:08.313Z,99796.91
2023-04-24T12:26:53.617Z,99794.31
2023-04-24T12:29:52.454Z,99806.38
2023-04-24T12:32:42.458Z,99810.03
2023-04-24T12:35:32.635Z,99810.88
2023-04-24T12:38:23.382Z,99822.81
2023-04-24T12:41:11.037Z,99827.97
2023-04-24T12:43:56.257Z,99827.16
2023-04-24T12:46:41.570Z,99834.69
2023-04-24T12:49:27.458Z,99836.41
2023-04-24T12:52:12.695Z,99837.88
2023-04-24T12:54:59.910Z,99845.63
2023-04-24T12:57:45.065Z,99860.19
2023-04-24T13:00:30.681Z,99855.94
2023-04-24T13:03:16.219Z,99862.09
2023-04-24T13:06:01.418Z,99865.50
2023-04-24T13:08:46.530Z,99875.97
2023-04-24T13:11:31.869Z,99870.91
2023-04-24T13:14:17.278Z,99879.50
2023-04-24T13:17:02.664Z,99884.72
2023-04-24T13:19:50.806Z,99899.50
2023-04-24T13:22:36.992Z,99886.56
2023-04-24T13:25:21.869Z,99894.63
2023-04-24T13:28:07.155Z,99897.88
2023-04-24T13:30:52.552Z,99895.25
2023-04-24T13:33:38.068Z,99890.84
2023-04-24T13:36:23.114Z,99889.97
2023-04-24T13:39:08.472Z,99892.66
2023-04-24T13:41:57.917Z,99894.38
2023-04-24T13:44:42.795Z,99885.84
2023-04-24T13:47:28.351Z,99891.81
2023-04-24T13:50:13.692Z,99891.75
2023-04-24T13:53:00.303Z,99889.16
2023-04-24T13:55:46.648Z,99885.63
2023-04-24T13:58:31.818Z,99885.88
2023-04-24T14:01:17.131Z,99893.56
2023-04-24T14:04:02.566Z,99890.19
2023-04-24T14:06:47.835Z,99882.41
2023-04-24T14:09:33.249Z,99886.63
2023-04-24T14:12:18.714Z,99888.50
2023-04-24T14:15:04.947Z,99900.50
2023-04-24T14:17:50.076Z,99893.53
2023-04-24T14:20:35.484Z,99897.84
2023-04-24T14:23:21.064Z,99900.44
2023-04-24T14:26:06.458Z,99903.09
2023-04-24T14:28:55.796Z,99903.13
2023-04-24T14:31:43.700Z,99895.47
2023-04-24T14:34:28.605Z,99895.44
2023-04-24T14:37:14.726Z,99887.75
2023-04-24T14:40:11.741Z,99884.28
2023-04-24T14:43:05.441Z,99896.34
2023-04-24T14:45:50.987Z,99880.06
2023-04-24T14:48:36.814Z,99886.16
2023-04-24T14:51:23.417Z,99883.50
2023-04-24T14:54:08.507Z,99876.69
2023-04-24T14:56:55.431Z,99883.63
2023-04-24T14:59:40.828Z,99882.75
2023-04-24T15:02:26.816Z,99881.09
2023-04-24T15:05:12.644Z,99888.13
2023-04-24T15:07:58.390Z,99891.44
2023-04-24T15:10:43.702Z,99899.94
2023-04-24T15:13:30.591Z,99877.69
2023-04-24T15:16:17.955Z,99881.47
2023-04-24T15:19:03.443Z,99880.72
2023-04-24T15:21:49.488Z,99884.28
2023-04-24T15:24:34.445Z,99867.06
2023-04-24T15:27:20.322Z,99866.25
2023-04-24T15:30:06.356Z,99858.47
2023-04-24T15:32:51.626Z,99852.44
2023-04-24T15:35:36.936Z,99862.81
2023-04-24T15:38:22.470Z,99856.63
2023-04-24T15:41:07.622Z,99866.03
2023-04-24T15:43:52.602Z,99878.94
2023-04-24T15:46:38.070Z,99900.50
2023-04-24T15:49:23.521Z,99903.84
2023-04-24T15:52:09.136Z,99878.97
2023-04-24T15:54:55.021Z,99888.44
2023-04-24T15:57:40.589Z,99887.47
2023-04-24T16:00:25.864Z,99884.84
2023-04-24T16:03:11.222Z,99891.91
2023-04-24T16:05:56.741Z,99879.00
2023-04-24T16:08:42.200Z,99890.31
2023-04-24T16:11:27.496Z,99877.31
2023-04-24T16:14:12.903Z,99887.63
2023-04-24T16:16:57.789Z,99873.88
2023-04-24T16:19:43.192Z,99845.38
2023-04-24T16:22:28.544Z,99858.38
2023-04-24T16:25:13.989Z,99860.88
2023-04-24T16:27:59.691Z,99860.91
2023-04-24T16:30:44.398Z,99866.06
2023-04-24T16:33:29.454Z,99876.53
2023-04-24T16:36:15.488Z,99873.03
2023-04-24T16:39:00.793Z,99886.81
2023-04-24T16:41:46.026Z,99881.69
2023-04-24T16:44:31.400Z,99888.47
2023-04-24T16:47:16.436Z,99896.03
2023-04-24T16:50:01.847Z,99896.19
2023-04-24T16:52:46.978Z,99904.75
2023-04-24T16:55:31.959Z,99910.84
2023-04-24T16:58:16.846Z,99912.56
2023-04-24T17:01:01.786Z,99916.03
2023-04-24T17:03:47.255Z,99917.88
2023-04-24T17:06:32.585Z,99917.84
2023-04-24T17:09:17.856Z,99917.84
2023-04-24T17:12:02.592Z,99920.88
2023-04-24T17:14:47.371Z,99939.81
2023-04-24T17:17:32.295Z,99956.28
2023-04-24T17:20:22.797Z,99953.59
2023-04-24T17:23:09.041Z,99958.88
2023-04-24T17:25:54.650Z,99964.94
2023-04-24T17:28:39.998Z,99953.72
2023-04-24T17:31:25.190Z,99957.97
2023-04-24T17:34:10.221Z,99949.47
2023-04-24T17:36:55.207Z,99956.38
2023-04-24T17:39:40.533Z,99941.69
2023-04-24T17:42:25.456Z,99933.16
2023-04-24T17:45:11.327Z,99923.75
2023-04-24T17:47:56.719Z,99928.06
2023-04-24T17:50:42.481Z,99919.22
2023-04-24T17:53:27.449Z,99926.94
2023-04-24T17:56:12.423Z,99935.50
2023-04-24T17:58:57.601Z,99955.81
2023-04-24T18:01:42.636Z,99966.00
2023-04-24T18:04:27.898Z,99971.78
2023-04-24T18:07:13.019Z,99994.06
2023-04-24T18:09:58.037Z,99998.38
2023-04-24T18:12:43.432Z,100016.97
2023-04-24T18:15:28.923Z,100010.97
2023-04-24T18:18:14.382Z,100019.56
2023-04-24T18:20:59.793Z,100014.34
2023-04-24T18:23:45.247Z,100023.69
2023-04-24T18:26:30.362Z,100022.78
2023-04-24T18:29:15.673Z,100023.59
2023-04-24T18:32:01.146Z,100018.34
2023-04-24T18:34:46.179Z,100023.44
2023-04-24T18:37:31.355Z,100026.88
2023-04-24T18:40:16.899Z,100036.22
2023-04-24T18:43:02.446Z,100039.59
2023-04-24T18:45:47.706Z,100048.13
2023-04-24T18:48:32.627Z,100053.06
2023-04-24T18:51:17.565Z,100050.56
2023-04-24T18:54:02.559Z,100059.94
2023-04-24T18:56:51.123Z,100065.94
2023-04-24T18:59:36.586Z,100065.97
2023-04-24T19:02:21.925Z,100068.63
2023-04-24T19:05:07.800Z,100066.91
2023-04-24T19:07:52.915Z,100066.09
2023-04-24T19:10:38.315Z,100068.63
2023-04-24T19:13:23.767Z,100066.16
2023-04-24T19:16:09.467Z,100072.16
2023-04-24T19:18:54.530Z,100078.13
2023-04-24T19:21:39.709Z,100067.00
2023-04-24T19:24:25.092Z,100070.31
2023-04-24T19:27:09.956Z,100066.78
2023-04-24T19:29:54.910Z,100069.31
2023-04-24T19:32:40.179Z,100069.94
2023-04-24T19:35:25.479Z,100074.97
2023-04-24T19:38:10.930Z,100073.19
2023-04-24T19:40:56.334Z,100073.13
2023-04-24T19:43:41.419Z,100080.13
2023-04-24T19:46:26.508Z,100072.34
2023-04-24T19:49:11.592Z,100079.25
2023-04-24T19:51:56.653Z,100073.25
2023-04-24T19:54:41.999Z,100077.53
2023-04-24T19:57:26.897Z,100069.81
2023-04-24T20:00:12.607Z,100057.75
2023-04-24T20:02:57.790Z,100068.84
2023-04-24T20:05:43.232Z,100063.63
2023-04-24T20:08:28.504Z,100066.97
2023-04-24T20:11:14.402Z,100070.31
2023-04-24T20:13:59.780Z,100068.38
2023-04-24T20:16:45.331Z,100066.53
2023-04-24T20:19:30.638Z,100068.06
2023-04-24T20:22:16.365Z,100077.50
2023-04-24T20:25:02.564Z,100074.81
2023-04-24T20:27:47.847Z,100077.13
2023-04-24T20:30:33.090Z,100083.13
2023-04-24T20:33:18.294Z,100084.72
2023-04-24T20:36:03.761Z,100087.22
2023-04-24T20:38:48.989Z,100092.34
2023-04-24T20:41:34.359Z,100100.00
2023-04-24T20:44:19.573Z,100100.78
2023-04-24T20:47:05.835Z,100099.97
2023-04-24T20:49:51.012Z,100106.66
2023-04-24T20:52:36.453Z,100114.28
2023-04-24T20:55:21.451Z,100107.44
2023-04-24T20:58:06.870Z,100108.28
2023-04-24T21:00:52.085Z,100103.03
2023-04-24T21:03:37.797Z,100100.44
2023-04-24T21:06:23.122Z,100105.50
2023-04-24T21:09:08.516Z,100098.44
2023-04-24T21:11:53.726Z,100098.44
2023-04-24T21:14:38.982Z,100101.06
2023-04-24T21:17:24.387Z,100109.56
2023-04-24T21:20:09.913Z,100102.53
2023-04-24T21:22:55.768Z,100099.88
2023-04-24T21:25:40.913Z,100105.81
2023-04-24T21:28:26.041Z,100103.16
2023-04-24T21:31:11.439Z,100104.03
2023-04-24T21:33:56.494Z,100103.16
2023-04-24T21:36:41.510Z,100102.38
2023-04-24T21:39:26.442Z,100109.09
2023-04-24T21:42:11.518Z,100110.00
2023-04-24T21:44:56.992Z,100105.72
2023-04-24T21:47:42.184Z,100107.22
2023-04-24T21:50:27.690Z,100103.59
2023-04-24T21:53:13.080Z,100109.66
2023-04-24T21:55:58.252Z,100108.78
2023-04-24T21:58:43.337Z,100104.41
2023-04-24T22:01:28.555Z,100102.81
2023-04-24T22:04:13.814Z,100112.28
2023-04-24T22:06:59.161Z,100105.59
2023-04-24T22:09:44.330Z,100102.88
2023-04-24T22:12:29.570Z,100086.63
2023-04-24T22:15:14.904Z,100089.97
2023-04-24T22:18:00.482Z,100081.22
2023-04-24T22:20:46.022Z,100086.34
2023-04-24T22:23:31.267Z,100092.06
2023-04-24T22:26:16.448Z,100086.84
2023-04-24T22:29:01.988Z,100086.84
2023-04-24T22:31:47.411Z,100087.72
2023-04-24T22:34:33.111Z,100087.69
2023-04-24T22:37:18.443Z,100088.63
2023-04-24T22:40:04.203Z,100085.13
2023-04-24T22:42:49.559Z,100085.28
2023-04-24T22:45:34.770Z,100078.66
2023-04-24T22:48:20.225Z,100072.56
2023-04-24T22:51:05.180Z,100068.31
2023-04-24T22:53:50.297Z,100070.91
2023-04-24T22:56:36.281Z,100079.50
2023-04-24T22:59:21.574Z,100078.56
2023-04-24T23:02:06.651Z,100077.91
2023-04-24T23:04:51.538Z,100080.44
2023-04-24T23:07:38.430Z,100073.47
2023-04-24T23:10:24.025Z,100081.94
2023-04-24T23:13:09.345Z,100075.22
2023-04-24T23:15:54.927Z,100077.72
2023-04-24T23:18:40.201Z,100080.34
2023-04-24T23:21:25.610Z,100084.63
2023-04-24T23:24:10.979Z,100087.22
2023-04-24T23:26:55.891Z,100082.06
2023-04-24T23:29:40.886Z,100084.63
2023-04-24T23:32:25.975Z,100080.31
2023-04-24T23:35:10.973Z,100084.50
2023-04-24T23:37:56.293Z,100079.34
2023-04-24T23:40:41.584Z,100079.34
2023-04-24T23:43:26.665Z,100086.91
2023-04-24T23:46:12.348Z,100080.09
2023-04-24T23:48:57.673Z,100078.28
2023-04-24T23:51:43.353Z,100084.34
2023-04-24T23:54:28.180Z,100075.66
2023-04-24T23:57:13.188Z,100068.88
2023-04-24T23:59:58.497Z,100078.38
